Time;durP1;ratioP1;P1;durP2;ratioP2;P2;SDS_P1;SDS_P2;PMS_P1;PMS_P2;Temp;Humidity;BMP_temperature;BMP_pressure;BME280_temperature;BME280_humidity;BME280_pressure;Samples;Min_cycle;Max_cycle;Signal;HPM_P1;HPM_P2
2023/07/09 00:02:05;;;;;;;12.77;7.65;;;21.60;93.30;;;;;;4805503;29;20548;-85
2023/07/09 00:04:37;;;;;;;12.60;7.43;;;21.50;93.80;;;;;;5041688;24;20022;-85
2023/07/09 00:10:58;;;;;;;13.50;7.22;;;21.30;94.30;;;;;;4823639;29;20053;-86
2023/07/09 00:13:42;;;;;;;11.63;7.10;;;21.40;93.80;;;;;;4823943;29;20057;-85
2023/07/09 00:16:30;;;;;;;12.50;7.28;;;21.40;94.50;;;;;;4823289;29;20391;-85
2023/07/09 00:18:56;;;;;;;12.98;6.88;;;21.40;94.20;;;;;;4824271;29;20089;-85
2023/07/09 00:21:22;;;;;;;12.05;6.55;;;21.30;94.30;;;;;;4823912;29;20470;-86
2023/07/09 00:23:48;;;;;;;11.38;6.75;;;21.30;94.40;;;;;;4823035;29;20082;-85
2023/07/09 00:26:30;;;;;;;11.95;7.07;;;21.30;94.30;;;;;;4825185;29;20054;-85
2023/07/09 00:28:55;;;;;;;14.43;7.20;;;21.30;94.20;;;;;;4824139;29;20050;-86
2023/07/09 00:31:21;;;;;;;12.27;7.00;;;21.30;94.30;;;;;;4823138;29;20050;-86
2023/07/09 00:33:56;;;;;;;13.32;6.90;;;21.30;94.40;;;;;;4823735;29;20403;-86
2023/07/09 00:36:29;;;;;;;12.32;7.22;;;21.30;94.40;;;;;;4823670;29;20082;-86
2023/07/09 00:38:55;;;;;;;14.05;7.10;;;21.20;94.30;;;;;;4822987;29;20053;-86
2023/07/09 00:41:23;;;;;;;12.68;7.15;;;21.20;94.20;;;;;;4823820;29;20054;-86
2023/07/09 00:44:19;;;;;;;11.93;6.05;;;21.20;94.40;;;;;;4824582;29;20111;-86
2023/07/09 00:46:48;;;;;;;13.13;7.45;;;21.20;94.50;;;;;;4823352;29;20139;-86
2023/07/09 00:49:34;;;;;;;11.40;6.53;;;21.10;94.50;;;;;;4823935;29;20069;-85
2023/07/09 00:52:32;;;;;;;12.57;6.95;;;21.10;94.90;;;;;;4822516;29;20046;-86
2023/07/09 00:55:03;;;;;;;12.93;6.95;;;21.00;94.90;;;;;;4823414;29;20058;-86
2023/07/09 00:57:55;;;;;;;11.73;6.90;;;21.00;94.90;;;;;;4823764;29;20042;-85
2023/07/09 01:00:46;;;;;;;11.98;7.00;;;20.90;95.20;;;;;;4830444;24;20137;-85
2023/07/09 01:03:43;;;;;;;12.75;7.25;;;20.90;95.50;;;;;;4822999;29;20060;-86
2023/07/09 01:09:40;;;;;;;13.07;7.07;;;20.70;95.40;;;;;;4823157;29;20058;-85
2023/07/09 01:12:34;;;;;;;12.77;7.28;;;20.80;95.20;;;;;;4824469;29;20046;-86
2023/07/09 01:15:00;;;;;;;11.32;7.03;;;20.70;95.30;;;;;;4825038;29;20137;-86
2023/07/09 01:17:29;;;;;;;11.75;6.80;;;20.70;95.40;;;;;;4824595;29;20125;-86
2023/07/09 01:20:15;;;;;;;12.80;7.47;;;20.70;95.40;;;;;;4822082;29;20507;-85
2023/07/09 01:22:50;;;;;;;12.70;7.60;;;20.70;95.30;;;;;;4823853;29;20051;-85
2023/07/09 01:25:30;;;;;;;12.90;6.63;;;20.70;95.50;;;;;;4822492;29;20460;-86
2023/07/09 01:27:59;;;;;;;12.07;6.90;;;20.60;95.50;;;;;;4823609;29;20087;-85
2023/07/09 01:30:41;;;;;;;12.95;6.90;;;20.50;95.40;;;;;;4822773;29;20076;-85
2023/07/09 01:33:09;;;;;;;13.82;7.65;;;20.60;95.60;;;;;;4824183;29;20050;-85
2023/07/09 01:35:37;;;;;;;13.50;7.50;;;20.50;95.60;;;;;;4821861;29;20050;-85
2023/07/09 01:38:20;;;;;;;13.52;7.30;;;20.50;95.90;;;;;;4823539;29;20122;-85
2023/07/09 01:40:46;;;;;;;12.10;7.35;;;20.50;95.90;;;;;;4823233;29;20057;-85
2023/07/09 01:43:11;;;;;;;13.40;7.85;;;20.50;95.90;;;;;;4807999;29;20050;-85
2023/07/09 01:45:57;;;;;;;12.43;7.57;;;20.50;96.10;;;;;;4821829;29;20054;-85
2023/07/09 01:48:44;;;;;;;12.13;7.38;;;20.50;96.10;;;;;;4822193;29;20046;-85
2023/07/09 01:51:13;;;;;;;12.63;7.15;;;20.50;96.20;;;;;;4822023;29;20053;-86
2023/07/09 01:53:40;;;;;;;12.25;7.28;;;20.50;96.20;;;;;;4824217;29;20053;-86
2023/07/09 01:56:21;;;;;;;13.15;7.07;;;20.40;96.30;;;;;;4821725;29;20081;-86
2023/07/09 01:58:47;;;;;;;12.30;7.20;;;20.40;96.70;;;;;;4823118;29;20403;-86
2023/07/09 02:01:15;;;;;;;14.10;7.47;;;20.10;96.40;;;;;;4816373;29;20051;-86
2023/07/09 02:03:40;;;;;;;11.82;7.18;;;20.30;96.70;;;;;;4803259;29;20059;-86
2023/07/09 02:06:08;;;;;;;14.10;7.78;;;20.30;96.70;;;;;;4804955;29;20060;-86
2023/07/09 02:08:35;;;;;;;12.23;7.32;;;20.20;97.10;;;;;;4804651;29;20507;-86
2023/07/09 02:11:00;;;;;;;12.50;7.57;;;20.20;96.90;;;;;;4803843;29;20062;-86
2023/07/09 02:13:26;;;;;;;14.60;7.72;;;20.20;97.00;;;;;;4805546;29;20046;-86
2023/07/09 02:15:51;;;;;;;12.35;7.55;;;20.10;97.10;;;;;;4804385;29;20539;-86
2023/07/09 02:18:20;;;;;;;13.18;7.22;;;20.10;97.40;;;;;;4804190;29;20496;-86
2023/07/09 02:20:46;;;;;;;11.93;7.00;;;20.00;97.60;;;;;;4804024;29;20081;-86
2023/07/09 02:23:12;;;;;;;14.10;7.18;;;20.00;97.90;;;;;;4804685;29;20459;-86
2023/07/09 02:25:50;;;;;;;;;;;;;;;;;;;;;
2023/07/09 02:28:19;;;;;;;12.77;7.18;;;19.90;98.20;;;;;;4802828;29;20066;-86
2023/07/09 02:30:45;;;;;;;12.60;7.45;;;19.90;98.60;;;;;;4803133;29;20104;-86
2023/07/09 02:33:11;;;;;;;13.13;7.95;;;19.80;98.70;;;;;;4803818;29;20137;-86
2023/07/09 02:35:49;;;;;;;14.20;7.70;;;19.80;99.00;;;;;;4803388;29;20543;-86
2023/07/09 02:38:15;;;;;;;14.02;7.47;;;19.70;99.60;;;;;;4803172;29;20546;-86
2023/07/09 02:40:40;;;;;;;11.45;7.03;;;19.70;99.40;;;;;;4803692;29;20155;-86
2023/07/09 02:43:12;;;;;;;13.70;7.22;;;19.60;99.60;;;;;;4803704;29;20142;-86
2023/07/09 02:45:39;;;;;;;12.77;7.70;;;19.60;99.90;;;;;;4802957;29;20062;-86
2023/07/09 02:48:20;;;;;;;13.93;7.32;;;19.50;99.90;;;;;;4805105;29;20047;-86
2023/07/09 02:50:58;;;;;;;12.30;7.57;;;19.50;99.90;;;;;;4802487;29;20051;-86
2023/07/09 02:53:24;;;;;;;13.25;7.57;;;19.50;99.90;;;;;;4805241;29;20043;-85
2023/07/09 02:55:49;;;;;;;13.30;7.90;;;19.50;99.90;;;;;;4803620;29;20054;-86
2023/07/09 02:58:16;;;;;;;14.48;7.82;;;19.40;99.90;;;;;;4803015;29;20054;-86
2023/07/09 03:00:57;;;;;;;12.35;7.30;;;19.30;99.90;;;;;;4803359;29;20074;-86
2023/07/09 03:03:22;;;;;;;13.45;7.50;;;19.30;99.90;;;;;;4802955;29;20387;-86
2023/07/09 03:05:48;;;;;;;11.43;7.20;;;19.20;99.90;;;;;;4803457;29;20059;-86
2023/07/09 03:08:29;;;;;;;12.07;7.63;;;19.20;99.90;;;;;;4803526;29;20107;-86
2023/07/09 03:10:55;;;;;;;13.05;7.60;;;19.20;99.90;;;;;;4806775;29;20039;-86
2023/07/09 03:13:20;;;;;;;12.70;7.85;;;19.10;99.90;;;;;;4806541;29;20047;-86
2023/07/09 03:16:02;;;;;;;12.90;7.82;;;19.10;99.90;;;;;;4807280;29;20051;-86
2023/07/09 03:18:28;;;;;;;14.88;7.72;;;19.10;99.90;;;;;;4806549;29;20062;-86
2023/07/09 03:20:54;;;;;;;14.20;7.97;;;19.00;99.90;;;;;;4805874;29;20043;-86
2023/07/09 03:23:19;;;;;;;13.48;8.20;;;19.00;99.90;;;;;;4807115;29;20098;-86
2023/07/09 03:26:25;;;;;;;12.85;7.90;;;18.90;99.90;;;;;;4806235;29;20047;-86
2023/07/09 03:28:51;;;;;;;12.73;7.55;;;18.90;99.90;;;;;;4808070;29;20061;-86
2023/07/09 03:31:21;;;;;;;13.73;7.63;;;18.90;99.90;;;;;;4808210;29;20103;-86
2023/07/09 03:33:51;;;;;;;12.63;7.57;;;18.90;99.90;;;;;;4807151;29;20395;-86
2023/07/09 03:36:19;;;;;;;13.02;7.68;;;18.80;99.90;;;;;;4806536;29;20047;-86
2023/07/09 03:38:58;;;;;;;14.07;7.75;;;19.00;99.90;;;;;;4806625;29;20158;-86
2023/07/09 03:41:25;;;;;;;12.95;7.70;;;18.80;99.90;;;;;;4807392;29;20078;-86
2023/07/09 03:43:52;;;;;;;12.23;7.50;;;18.80;99.90;;;;;;4806329;29;20061;-86
2023/07/09 03:46:33;;;;;;;13.02;7.35;;;18.80;99.90;;;;;;4807826;29;20125;-86
2023/07/09 03:49:00;;;;;;;12.52;7.68;;;18.80;99.90;;;;;;4805462;29;20608;-86
2023/07/09 03:51:25;;;;;;;14.15;8.27;;;18.80;99.90;;;;;;4807482;29;20042;-86
2023/07/09 03:53:51;;;;;;;13.80;7.90;;;18.80;99.90;;;;;;4806017;29;20517;-86
2023/07/09 03:56:28;;;;;;;13.43;7.70;;;18.80;99.90;;;;;;4806871;29;20083;-86
2023/07/09 03:58:54;;;;;;;11.93;8.13;;;18.80;99.90;;;;;;4807093;29;20043;-86
2023/07/09 04:01:20;;;;;;;12.60;7.75;;;18.80;99.90;;;;;;4814045;29;20062;-86
2023/07/09 04:03:58;;;;;;;13.05;7.88;;;18.80;99.90;;;;;;4823316;29;20057;-86
2023/07/09 04:06:24;;;;;;;12.68;7.70;;;18.80;99.90;;;;;;4838628;29;20046;-86
2023/07/09 04:08:49;;;;;;;13.65;8.00;;;18.90;99.90;;;;;;4838526;29;20042;-86
2023/07/09 04:11:15;;;;;;;13.38;8.15;;;18.90;99.90;;;;;;4825692;29;20475;-86
2023/07/09 04:13:53;;;;;;;13.70;8.20;;;19.00;99.90;;;;;;4839168;29;20505;-85
2023/07/09 04:16:18;;;;;;;14.45;8.05;;;18.90;99.90;;;;;;4838978;29;20394;-86
2023/07/09 04:19:02;;;;;;;12.73;7.60;;;19.10;99.90;;;;;;4825840;29;20050;-86
2023/07/09 04:21:28;;;;;;;12.98;7.55;;;19.10;99.90;;;;;;4829368;29;20367;-85
2023/07/09 04:23:54;;;;;;;12.85;7.75;;;19.20;99.90;;;;;;4824209;29;20542;-85
2023/07/09 04:26:39;;;;;;;14.45;7.55;;;19.20;99.90;;;;;;4823832;29;20046;-86
2023/07/09 04:29:06;;;;;;;15.02;7.90;;;19.20;99.90;;;;;;4823095;29;20053;-86
2023/07/09 04:31:31;;;;;;;15.10;7.78;;;19.40;99.90;;;;;;4824384;29;20406;-86
2023/07/09 04:33:57;;;;;;;15.18;8.05;;;19.40;99.90;;;;;;4823513;29;20045;-85
2023/07/09 04:36:23;;;;;;;12.38;7.75;;;19.60;99.90;;;;;;4838146;29;20058;-86
2023/07/09 04:39:05;;;;;;;12.48;7.70;;;19.60;99.90;;;;;;4824696;29;20043;-86
2023/07/09 04:41:31;;;;;;;12.65;8.00;;;19.70;99.90;;;;;;4823882;29;20137;-86
2023/07/09 04:43:57;;;;;;;13.90;8.13;;;19.80;99.90;;;;;;4824043;29;20133;-86
2023/07/09 04:46:42;;;;;;;13.93;7.50;;;19.90;99.90;;;;;;4825138;29;20050;-86
2023/07/09 04:49:08;;;;;;;14.18;7.38;;;20.00;99.90;;;;;;4824555;29;20467;-86
2023/07/09 04:51:49;;;;;;;12.30;7.78;;;20.10;99.90;;;;;;4838244;29;20050;-86
2023/07/09 04:54:15;;;;;;;14.35;7.75;;;20.20;99.90;;;;;;4838414;29;20049;-85
2023/07/09 04:56:53;;;;;;;13.48;7.90;;;20.30;99.90;;;;;;4823299;29;20134;-86
2023/07/09 04:59:19;;;;;;;13.05;7.68;;;20.30;99.90;;;;;;4822748;29;20400;-86
2023/07/09 05:01:46;;;;;;;13.07;7.60;;;20.40;99.90;;;;;;4838173;29;20062;-86
2023/07/09 05:04:26;;;;;;;12.68;7.55;;;20.50;99.90;;;;;;4823830;29;20122;-86
2023/07/09 05:06:52;;;;;;;13.00;7.63;;;20.90;99.90;;;;;;4822940;29;20054;-86
2023/07/09 05:09:18;;;;;;;14.45;7.35;;;20.80;99.90;;;;;;4823197;29;20034;-86
2023/07/09 05:11:43;;;;;;;14.85;7.63;;;21.00;99.90;;;;;;4823941;29;20096;-86
2023/07/09 05:14:28;;;;;;;13.10;7.57;;;21.10;99.90;;;;;;4823217;29;20107;-86
2023/07/09 05:16:54;;;;;;;12.95;7.53;;;21.20;99.90;;;;;;4837782;29;20559;-86
2023/07/09 05:19:38;;;;;;;15.88;7.00;;;21.40;99.90;;;;;;4821974;29;20050;-85
2023/07/09 05:22:04;;;;;;;37.92;7.43;;;21.50;99.90;;;;;;4824120;29;20103;-86
2023/07/09 05:24:33;;;;;;;13.45;7.30;;;21.70;99.90;;;;;;4821537;29;20054;-86
2023/07/09 05:27:02;;;;;;;12.40;7.35;;;21.80;99.90;;;;;;4822307;29;20048;-85
2023/07/09 05:29:27;;;;;;;12.45;7.32;;;22.00;99.90;;;;;;4820415;29;20057;-86
2023/07/09 05:32:05;;;;;;;12.13;7.55;;;22.10;99.90;;;;;;4815828;29;20051;-86
2023/07/09 05:34:46;;;;;;;13.38;7.10;;;22.30;99.90;;;;;;4804214;29;20532;-85
2023/07/09 05:37:27;;;;;;;13.20;7.78;;;22.40;99.90;;;;;;4805977;29;20047;-86
2023/07/09 05:47:19;;;;;;;13.73;7.85;;;22.80;99.90;;;;;;4940192;24;20061;-86
2023/07/09 05:49:49;;;;;;;13.30;7.88;;;23.00;99.90;;;;;;4822711;29;20049;-86
2023/07/09 05:52:24;;;;;;;13.00;7.45;;;23.00;99.90;;;;;;4823205;29;20089;-86
2023/07/09 05:57:59;;;;;;;12.27;7.45;;;23.40;99.90;;;;;;4821686;29;20503;-86
2023/07/09 06:00:25;;;;;;;14.65;7.63;;;23.10;99.90;;;;;;4822612;29;20066;-86
2023/07/09 06:02:51;;;;;;;12.13;7.03;;;23.10;99.90;;;;;;4821504;29;20058;-86
2023/07/09 06:05:29;;;;;;;12.13;7.35;;;23.10;99.90;;;;;;4822363;29;20049;-86
2023/07/09 06:08:16;;;;;;;14.65;7.45;;;23.10;99.80;;;;;;4822368;29;20190;-86
2023/07/09 06:11:10;;;;;;;12.35;7.05;;;23.20;99.90;;;;;;4824311;29;20121;-86
2023/07/09 06:13:50;;;;;;;14.45;7.80;;;23.30;99.90;;;;;;4822965;29;20035;-86
2023/07/09 06:16:17;;;;;;;13.63;7.70;;;23.30;99.80;;;;;;4822154;29;20060;-86
2023/07/09 06:18:45;;;;;;;13.25;7.50;;;23.40;99.90;;;;;;4822028;29;20053;-86
2023/07/09 06:21:39;;;;;;;14.52;7.68;;;23.20;99.80;;;;;;4823633;29;20050;-86
2023/07/09 06:27:30;;;;;;;13.13;7.65;;;23.40;99.60;;;;;;4823901;29;20094;-86
2023/07/09 06:30:05;;;;;;;14.18;7.93;;;23.40;99.70;;;;;;4822070;29;20546;-86
2023/07/09 06:32:43;;;;;;;14.23;7.97;;;23.50;99.80;;;;;;4823370;29;20133;-87
2023/07/09 06:35:48;;;;;;;13.73;7.93;;;23.60;99.80;;;;;;4822819;29;20552;-86
2023/07/09 06:38:21;;;;;;;13.80;8.25;;;23.60;99.70;;;;;;4817601;29;20050;-86
2023/07/09 06:40:57;;;;;;;13.75;7.35;;;23.80;99.90;;;;;;5043786;24;20070;-86
2023/07/09 06:43:23;;;;;;;13.32;7.82;;;23.70;99.60;;;;;;4823415;29;20046;-84
2023/07/09 06:45:51;;;;;;;14.65;8.90;;;23.80;99.80;;;;;;4824744;29;20571;-84
2023/07/09 06:48:16;;;;;;;13.38;7.65;;;24.00;99.80;;;;;;4826209;29;20046;-83
2023/07/09 06:50:42;;;;;;;14.63;7.70;;;24.00;99.70;;;;;;4824538;29;20483;-83
2023/07/09 06:53:09;;;;;;;15.27;7.97;;;24.10;99.90;;;;;;4825376;29;20049;-81
2023/07/09 06:55:35;;;;;;;16.85;8.05;;;24.30;99.90;;;;;;4825842;29;20133;-82
2023/07/09 06:58:00;;;;;;;14.20;7.90;;;24.40;99.90;;;;;;4825747;29;20138;-82
2023/07/09 07:00:26;;;;;;;13.40;8.00;;;24.40;99.90;;;;;;4823042;29;20072;-83
2023/07/09 07:02:51;;;;;;;13.05;7.72;;;24.50;99.90;;;;;;4818563;29;20558;-82
2023/07/09 07:05:17;;;;;;;14.88;7.30;;;24.70;99.90;;;;;;4820215;29;20388;-86
2023/07/09 07:07:44;;;;;;;12.82;7.72;;;24.80;99.90;;;;;;4821288;29;20568;-82
2023/07/09 07:10:10;;;;;;;13.15;7.55;;;25.00;99.90;;;;;;4824739;29;20062;-82
2023/07/09 07:12:46;;;;;;;12.70;7.97;;;25.10;99.90;;;;;;4825754;29;20578;-82
2023/07/09 07:15:15;;;;;;;14.82;8.10;;;25.20;99.70;;;;;;4825176;29;20042;-82
2023/07/09 07:17:44;;;;;;;14.75;8.10;;;25.30;99.80;;;;;;4826442;29;20054;-82
2023/07/09 07:20:24;;;;;;;14.30;8.10;;;25.40;99.60;;;;;;4830816;24;20051;-83
2023/07/09 07:22:50;;;;;;;15.95;8.30;;;25.40;99.60;;;;;;4807733;29;20511;-82
2023/07/09 07:25:22;;;;;;;14.32;7.28;;;25.60;99.90;;;;;;4807460;29;20054;-83
2023/07/09 07:27:48;;;;;;;13.13;7.57;;;25.70;99.90;;;;;;4808567;29;20392;-82
2023/07/09 07:30:14;;;;;;;12.80;7.93;;;25.90;99.90;;;;;;4807053;29;20057;-82
2023/07/09 07:32:46;;;;;;;13.45;7.70;;;26.00;99.80;;;;;;4813242;29;20058;-83
2023/07/09 07:35:13;;;;;;;14.70;7.93;;;26.20;99.70;;;;;;4824568;29;20093;-83
2023/07/09 07:37:39;;;;;;;16.23;8.43;;;26.30;99.80;;;;;;4824671;29;20455;-85
2023/07/09 07:43:00;;;;;;;14.02;8.15;;;26.50;98.90;;;;;;4825787;29;20061;-84
2023/07/09 07:45:28;;;;;;;14.23;8.00;;;26.60;99.10;;;;;;4826389;29;20042;-86
2023/07/09 07:48:09;;;;;;;15.93;8.32;;;26.70;98.80;;;;;;4804134;29;20091;-85
2023/07/09 07:50:50;;;;;;;12.73;7.97;;;26.90;99.10;;;;;;4797821;29;20051;-86
2023/07/09 07:53:29;;;;;;;15.20;8.20;;;27.00;98.70;;;;;;4798184;29;20062;-85
2023/07/09 07:56:13;;;;;;;15.02;8.18;;;27.10;98.20;;;;;;4808384;29;20055;-85
2023/07/09 07:58:47;;;;;;;14.57;7.85;;;27.20;98.00;;;;;;4807698;29;20086;-85
2023/07/09 08:01:22;;;;;;;16.50;8.02;;;27.30;98.20;;;;;;4806743;29;20058;-85
2023/07/09 08:03:47;;;;;;;12.52;7.25;;;27.40;98.10;;;;;;4805894;29;20047;-85
2023/07/09 08:06:32;;;;;;;14.00;8.25;;;27.50;98.40;;;;;;4807774;29;20088;-85
2023/07/09 08:09:10;;;;;;;13.43;8.27;;;27.80;97.20;;;;;;4806160;29;20051;-85
2023/07/09 08:11:51;;;;;;;13.43;7.90;;;27.80;97.40;;;;;;4806174;29;20081;-86
2023/07/09 08:14:16;;;;;;;14.68;7.47;;;28.00;97.40;;;;;;4821770;29;20060;-86
2023/07/09 08:16:42;;;;;;;11.43;6.82;;;28.00;97.50;;;;;;4825479;29;20125;-87
2023/07/09 08:19:08;;;;;;;14.05;7.63;;;28.30;97.50;;;;;;4824567;29;20053;-88
2023/07/09 08:21:45;;;;;;;12.57;7.63;;;28.50;97.30;;;;;;4823739;29;20511;-86
2023/07/09 08:24:15;;;;;;;17.15;7.75;;;28.60;97.00;;;;;;4824238;29;20074;-87
2023/07/09 08:26:53;;;;;;;14.38;7.47;;;28.80;97.10;;;;;;4824494;29;20050;-87
2023/07/09 08:29:36;;;;;;;13.32;7.47;;;29.00;96.30;;;;;;4824717;29;20038;-87
2023/07/09 08:32:23;;;;;;;12.55;7.53;;;28.90;96.30;;;;;;4823938;29;20153;-86
2023/07/09 08:34:49;;;;;;;12.05;7.45;;;29.00;96.70;;;;;;4823401;29;20049;-88
2023/07/09 08:37:15;;;;;;;13.52;6.95;;;29.10;96.50;;;;;;4823547;29;20046;-88
2023/07/09 08:39:41;;;;;;;16.08;7.10;;;29.20;96.20;;;;;;4815728;29;20087;-88
2023/07/09 08:43:04;;;;;;;12.18;6.68;;;29.30;95.90;;;;;;4849044;24;20055;-85
2023/07/09 08:46:40;;;;;;;12.02;6.80;;;29.30;95.10;;;;;;4825136;29;20562;-87
2023/07/09 08:49:56;;;;;;;12.35;6.88;;;29.50;95.70;;;;;;4824143;29;20058;-89
2023/07/09 08:52:55;;;;;;;12.70;7.00;;;29.80;95.80;;;;;;4825128;29;20054;-88
2023/07/09 08:55:28;;;;;;;13.20;6.80;;;29.90;95.70;;;;;;4825210;29;20050;-91
2023/07/09 08:57:59;;;;;;;;;;;29.90;95.80;;;;;;4829015;29;20050;-91
2023/07/09 09:01:16;;;;;;;12.70;7.40;;;29.90;95.40;;;;;;4825737;29;19989;-87
2023/07/09 09:04:22;;;;;;;13.32;6.70;;;30.00;94.20;;;;;;4791539;29;20069;-87
2023/07/09 09:21:06;;;;;;;;;;;;;;;;;;;;;
2023/07/09 09:33:50;;;;;;;12.50;6.25;;;31.40;93.70;;;;;;4820353;24;20142;-87
2023/07/09 09:40:31;;;;;;;12.57;6.35;;;31.80;93.60;;;;;;5410528;24;20108;-87
2023/07/09 09:46:44;;;;;;;14.32;5.90;;;32.00;92.70;;;;;;4894907;24;20088;-88
2023/07/09 09:49:10;;;;;;;13.63;6.30;;;32.10;92.30;;;;;;4819451;29;20069;-84
2023/07/09 09:51:56;;;;;;;12.48;6.35;;;32.10;92.40;;;;;;4820679;29;20047;-88
2023/07/09 09:54:35;;;;;;;12.00;6.07;;;32.10;90.70;;;;;;4811338;29;20082;-88
2023/07/09 09:57:28;;;;;;;12.23;6.25;;;32.10;92.30;;;;;;4813831;29;20042;-88
2023/07/09 10:00:00;;;;;;;11.70;5.88;;;32.40;92.60;;;;;;4814499;29;20146;-88
2023/07/09 10:02:26;;;;;;;12.20;6.22;;;32.60;92.70;;;;;;4814209;29;20138;-87
2023/07/09 10:04:52;;;;;;;11.85;6.20;;;32.80;92.50;;;;;;4816193;29;20129;-88
2023/07/09 10:08:05;;;;;;;10.40;6.20;;;32.90;92.40;;;;;;4818379;24;20112;-88
2023/07/09 10:11:02;;;;;;;10.80;5.90;;;33.20;91.50;;;;;;4812161;29;20054;-87
2023/07/09 10:33:51;;;;;;;11.75;5.72;;;34.00;90.80;;;;;;6321402;22;20041;-86
2023/07/09 10:37:03;;;;;;;11.40;5.68;;;34.10;90.00;;;;;;6341757;22;20023;-87
2023/07/09 10:50:50;;;;;;;11.27;5.70;;;34.10;87.90;;;;;;6153263;22;20033;-85
2023/07/09 10:54:27;;;;;;;13.73;5.40;;;34.30;87.40;;;;;;6262692;22;20014;-86
2023/07/09 10:58:15;;;;;;;10.30;5.30;;;34.50;88.80;;;;;;6156097;23;20036;-85
2023/07/09 11:08:48;;;;;;;10.05;5.50;;;34.90;86.60;;;;;;6158312;22;20017;-84
2023/07/09 11:22:17;;;;;;;10.00;4.80;;;35.10;85.40;;;;;;6261241;22;20096;-84
2023/07/09 11:25:17;;;;;;;9.65;5.10;;;35.30;84.50;;;;;;6155131;22;20021;-85
2023/07/09 11:28:12;;;;;;;10.52;5.13;;;35.40;83.40;;;;;;6254430;22;20017;-85
2023/07/09 11:34:28;;;;;;;12.10;5.07;;;35.70;83.10;;;;;;6251954;22;20036;-88
2023/07/09 11:37:23;;;;;;;9.27;4.72;;;35.90;82.00;;;;;;6252866;22;20018;-86
2023/07/09 11:39:49;;;;;;;10.07;4.80;;;36.00;80.20;;;;;;6252176;22;20054;-87
2023/07/09 11:43:11;;;;;;;11.75;5.70;;;36.00;82.00;;;;;;6254545;22;20014;-89
2023/07/09 11:45:49;;;;;;;10.45;4.85;;;36.10;82.40;;;;;;6150890;23;20084;-88
2023/07/09 11:48:26;;;;;;;13.40;5.53;;;36.10;81.90;;;;;;6255030;22;20326;-88
2023/07/09 11:51:17;;;;;;;10.52;5.38;;;36.10;81.90;;;;;;6254605;22;20013;-89
2023/07/09 11:54:13;;;;;;;11.68;5.47;;;36.20;81.60;;;;;;6150763;23;20013;-88
2023/07/09 11:59:59;;;;;;;11.77;5.18;;;36.50;80.40;;;;;;6151188;23;20017;-88
2023/07/09 12:02:51;;;;;;;10.70;5.80;;;36.50;79.50;;;;;;6255241;22;20100;-88
2023/07/09 12:05:28;;;;;;;9.98;4.93;;;36.40;80.70;;;;;;6257156;22;20022;-88
2023/07/09 12:14:59;;;;;;;11.10;4.80;;;36.70;79.90;;;;;;6150078;23;20312;-89
2023/07/09 12:18:17;;;;;;;10.40;4.78;;;37.00;79.00;;;;;;6141118;22;20109;-89
2023/07/09 12:20:55;;;;;;;12.57;4.97;;;37.00;78.00;;;;;;6157450;23;20020;-89
2023/07/09 12:23:41;;;;;;;10.18;4.80;;;37.00;77.70;;;;;;6158331;23;20133;-90
2023/07/09 12:26:22;;;;;;;9.60;4.32;;;36.70;76.70;;;;;;6182313;23;20084;-92
2023/07/09 12:37:13;;;;;;;9.68;4.53;;;36.80;76.50;;;;;;6121859;23;20059;-88
2023/07/09 12:45:18;;;;;;;10.63;5.05;;;36.70;76.60;;;;;;6154010;22;20032;-89
2023/07/09 12:51:56;;;;;;;10.63;4.93;;;36.60;77.40;;;;;;6130372;22;20484;-91
2023/07/09 12:54:22;;;;;;;8.73;4.43;;;36.80;77.70;;;;;;6134440;22;20034;-91
2023/07/09 12:57:09;;;;;;;10.82;4.85;;;37.10;76.90;;;;;;6253204;22;20036;-90
2023/07/09 13:18:03;;;;;;;9.43;4.45;;;35.20;75.80;;;;;;6149430;22;20442;-89
2023/07/09 13:20:59;;;;;;;9.88;4.10;;;34.80;76.50;;;;;;6251753;22;20013;-90
2023/07/09 13:23:27;;;;;;;8.68;4.30;;;34.60;77.00;;;;;;6252944;22;20053;-89
2023/07/09 13:25:56;;;;;;;11.98;4.55;;;34.20;77.00;;;;;;6146666;23;20016;-89
2023/07/09 13:28:45;;;;;;;11.30;4.13;;;34.30;77.70;;;;;;6256395;22;20020;-88
2023/07/09 13:34:50;;;;;;;11.68;4.38;;;34.00;78.20;;;;;;6148348;22;20424;-88
2023/07/09 13:37:16;;;;;;;9.45;3.85;;;33.70;78.80;;;;;;6252615;22;20022;-88
2023/07/09 13:40:02;;;;;;;9.75;3.90;;;33.60;79.40;;;;;;6149167;23;20059;-89
2023/07/09 13:42:28;;;;;;;11.63;4.30;;;33.50;79.60;;;;;;6255234;22;20057;-88
2023/07/09 13:44:55;;;;;;;10.40;4.20;;;33.30;79.70;;;;;;6164621;23;20060;-89
2023/07/09 13:47:44;;;;;;;10.55;4.28;;;33.20;79.10;;;;;;6264152;22;20039;-88
2023/07/09 13:56:11;;;;;;;8.40;3.72;;;32.80;80.00;;;;;;6148126;22;20029;-84
2023/07/09 13:59:05;;;;;;;11.98;4.30;;;32.70;80.30;;;;;;6148962;23;20026;-84
2023/07/09 14:01:31;;;;;;;10.10;4.13;;;32.60;81.10;;;;;;6251897;22;20089;-83
2023/07/09 14:04:00;;;;;;;9.68;4.03;;;32.80;81.20;;;;;;6250602;22;20056;-87
2023/07/09 14:06:42;;;;;;;9.77;4.18;;;33.00;81.40;;;;;;6251454;22;20060;-84
2023/07/09 14:09:11;;;;;;;9.10;4.17;;;33.40;80.90;;;;;;6149029;22;20025;-84
2023/07/09 14:12:04;;;;;;;11.25;4.47;;;33.60;80.90;;;;;;6252038;22;20264;-84
2023/07/09 14:15:22;;;;;;;10.93;4.30;;;33.60;79.40;;;;;;6148324;23;20049;-84
2023/07/09 14:17:49;;;;;;;9.95;4.40;;;33.50;80.30;;;;;;6148836;23;20096;-84
2023/07/09 14:20:16;;;;;;;8.63;3.80;;;33.40;82.10;;;;;;6148543;23;20017;-84
2023/07/09 14:22:43;;;;;;;10.80;4.57;;;33.30;81.20;;;;;;6148782;23;20539;-83
2023/07/09 14:25:22;;;;;;;8.75;4.18;;;33.30;81.80;;;;;;6250727;22;20028;-84
2023/07/09 14:28:00;;;;;;;10.13;4.15;;;33.10;80.60;;;;;;6250559;22;20067;-83
2023/07/09 14:30:26;;;;;;;10.85;4.60;;;33.00;80.70;;;;;;6251526;22;20066;-84
2023/07/09 14:32:52;;;;;;;11.55;4.80;;;32.80;81.20;;;;;;6148373;23;20037;-84
2023/07/09 14:35:20;;;;;;;10.73;4.60;;;32.70;81.90;;;;;;6250908;22;20018;-84
2023/07/09 14:37:48;;;;;;;9.98;4.35;;;32.50;82.40;;;;;;6150225;23;20047;-83
2023/07/09 14:40:14;;;;;;;9.77;4.60;;;32.30;82.90;;;;;;6148975;23;20458;-84
2023/07/09 14:42:41;;;;;;;10.15;4.65;;;32.10;83.40;;;;;;6148529;23;20742;-83
2023/07/09 14:45:28;;;;;;;9.95;4.60;;;31.90;83.60;;;;;;6251506;22;20105;-84
2023/07/09 14:47:54;;;;;;;11.50;4.55;;;31.80;84.40;;;;;;6251590;22;20092;-83
2023/07/09 14:50:21;;;;;;;10.13;4.50;;;31.70;84.70;;;;;;6148010;23;20018;-84
2023/07/09 14:52:50;;;;;;;10.80;4.95;;;31.50;85.50;;;;;;6149488;23;20022;-84
2023/07/09 14:59:21;;;;;;;9.93;4.88;;;31.20;86.00;;;;;;6149004;23;20104;-84
2023/07/09 15:01:48;;;;;;;10.25;4.72;;;30.90;86.90;;;;;;6252532;22;20379;-83
2023/07/09 15:07:41;;;;;;;11.23;4.85;;;30.70;88.70;;;;;;6145423;22;20025;-84
2023/07/09 15:14:26;;;;;;;10.35;4.97;;;30.50;90.00;;;;;;6149977;23;20024;-84
2023/07/09 15:17:17;;;;;;;9.70;4.93;;;30.40;90.40;;;;;;6148349;23;20495;-84
2023/07/09 15:19:42;;;;;;;11.10;4.70;;;30.40;90.10;;;;;;6150971;23;20017;-84
2023/07/09 15:22:55;;;;;;;12.40;5.13;;;30.40;90.20;;;;;;6150471;23;20449;-84
2023/07/09 15:25:23;;;;;;;12.50;4.90;;;30.30;90.90;;;;;;6251647;22;20346;-85
2023/07/09 15:27:49;;;;;;;10.35;4.90;;;30.40;91.20;;;;;;6252768;22;20104;-84
2023/07/09 15:30:19;;;;;;;9.30;4.75;;;30.30;91.30;;;;;;6253052;22;20018;-83
2023/07/09 15:36:57;;;;;;;12.23;5.88;;;30.40;91.20;;;;;;6182076;23;20028;-83
2023/07/09 15:39:23;;;;;;;12.85;6.20;;;30.40;90.90;;;;;;6155705;23;20056;-83
2023/07/09 15:41:49;;;;;;;9.73;5.70;;;30.50;91.10;;;;;;6250391;22;20017;-82
2023/07/09 15:44:32;;;;;;;11.25;5.45;;;30.30;91.40;;;;;;6252692;22;20025;-83
2023/07/09 15:47:15;;;;;;;12.05;5.22;;;29.70;91.50;;;;;;6253117;22;20017;-82
2023/07/09 15:49:43;;;;;;;12.45;5.25;;;29.30;92.00;;;;;;6253607;22;20434;-82
2023/07/09 15:52:29;;;;;;;12.07;6.15;;;28.80;93.00;;;;;;6252934;22;20014;-81
2023/07/09 15:54:54;;;;;;;13.40;6.20;;;28.20;94.00;;;;;;6152498;22;20022;-81
2023/07/09 15:57:36;;;;;;;11.57;5.20;;;27.70;94.50;;;;;;6253327;22;20014;-81
2023/07/09 16:00:26;;;;;;;13.00;5.80;;;27.10;96.30;;;;;;6250678;22;20021;-82
2023/07/09 16:03:12;;;;;;;17.45;6.43;;;26.90;95.50;;;;;;6149222;22;20013;-82
2023/07/09 16:06:01;;;;;;;12.65;5.90;;;26.50;95.20;;;;;;6148727;23;20378;-82
2023/07/09 16:08:41;;;;;;;14.80;6.45;;;26.30;95.00;;;;;;6229392;22;20015;-82
2023/07/09 16:11:22;;;;;;;14.57;6.07;;;25.80;94.80;;;;;;6274407;22;20134;-82
2023/07/09 16:13:48;;;;;;;12.93;5.53;;;25.80;94.50;;;;;;6274058;22;20019;-81
2023/07/09 16:16:24;;;;;;;14.43;5.70;;;25.60;94.10;;;;;;6274053;22;20043;-85
2023/07/09 16:22:28;;;;;;;11.85;5.22;;;25.20;93.60;;;;;;6161766;22;20025;-80
2023/07/09 16:25:48;;;;;;;12.73;5.15;;;24.90;93.70;;;;;;6251258;22;20014;-81
2023/07/09 16:29:20;;;;;;;10.48;5.00;;;24.70;94.00;;;;;;6250565;22;20017;-82
2023/07/09 16:39:53;;;;;;;13.50;5.57;;;24.10;96.50;;;;;;6180443;23;20334;-80